Airfield :
LOGIN :

Register | Disclaimer

   EN    FR    IT 

 










Legend :    VFR   Marginal VFR   IFR   Intensive IFR   Very Intensive IFR
Visi :
Ceiling :
>= 8 km
>= 3000ft
5 to 8 km
1000 to 3000 ft
1500m to 5 km
500 to 1000 ft
800 to 1500m
200 to 500 ft
< 800m
< 200 ft
Symbols :   Thunderstorms  Fog  Heavy snow  Heavy precipitations  Wind > 20 kt
SIGMETs :     Misc.  Thunderstorms  Icing  Turbulence  Mountain Waves  Volcanic Ashes






- Airport Elevation : 200 ft


EBBL - Klein Brogel AB

CURRENT METAR :
  • 201855Z AUTO 26017G31KT 6000 RA OVC010/// 05/04 Q1011 GRN

EXPIRED METARs :
  • 201825Z AUTO 22018G29KT 5000 RA OVC013/// 08/07 Q1009 GRN
  • 201819Z AUTO 21019KT 3400 -RA OVC015/// 08/07 Q1009 YLO
  • 201755Z AUTO 22017G27KT 9999 -RA OVC022/// 09/06 Q1009 WHT
  • 201737Z AUTO 21017KT 9999 -RA OVC024/// 10/05 Q1009 WHT
  • 201725Z AUTO 21017KT 9999 -RA OVC026/// 10/05 Q1009 BLU
  • 201655Z AUTO 21016G27KT 9999 OVC027/// 10/05 Q1009 BLU
  • 201625Z AUTO 21015KT 9999 OVC029/// 10/05 Q1010 BLU FCST CANCEL
  • 201555Z 21014G25KT 9999 FEW030 BKN045 10/05 Q1010 BLU BLU

TAF TAF EBBL
Valid from the 20 at 19:00 until the 21 at 07:00 UTC


201541Z 2019/2107 23020G30KT 5000 -RA SHRA BKN020
PROB40
TEMPO 2018/2020 22025G35KT 4000 RA SHRA BKN010
BECMG 2021/2022 28020G30KT 9999 FEW020



MET'MAP, your aeronautical weather chart ! - Copyright ORBIFLY December 2007 - Disclaimer

ORBIFLY MET'MAP TEAM :

Programming & Development : Alexandra Zaïnal
Concept & original design : Baudouin d'Aumeries
Assistance for programming : Marc-Olivier Méhu
Technical & hardware support : Manuel Goepfert

Contact : metmap@orbifly.com




SOURCES & CREDITS :

   NOAA